sensor_id;sensor_type;location;lat;lon;timestamp;P1;durP1;ratioP1;P2;durP2;ratioP2
23449;SDS011;11897;45.438;12.128;2023-07-20T00:00:51;8.07;;;4.70;;
23449;SDS011;11897;45.438;12.128;2023-07-20T00:03:20;7.82;;;4.43;;
23449;SDS011;11897;45.438;12.128;2023-07-20T00:05:48;5.18;;;3.70;;
23449;SDS011;11897;45.438;12.128;2023-07-20T00:08:15;5.95;;;3.60;;
23449;SDS011;11897;45.438;12.128;2023-07-20T00:10:42;7.60;;;3.67;;
23449;SDS011;11897;45.438;12.128;2023-07-20T00:13:09;6.45;;;3.88;;
23449;SDS011;11897;45.438;12.128;2023-07-20T00:15:36;7.45;;;3.10;;
23449;SDS011;11897;45.438;12.128;2023-07-20T00:18:03;6.28;;;3.63;;
23449;SDS011;11897;45.438;12.128;2023-07-20T00:20:31;6.50;;;3.17;;
23449;SDS011;11897;45.438;12.128;2023-07-20T00:22:57;9.25;;;4.00;;
23449;SDS011;11897;45.438;12.128;2023-07-20T00:25:24;5.28;;;3.65;;
23449;SDS011;11897;45.438;12.128;2023-07-20T00:27:51;5.65;;;3.88;;
23449;SDS011;11897;45.438;12.128;2023-07-20T00:30:19;8.85;;;3.83;;
23449;SDS011;11897;45.438;12.128;2023-07-20T00:32:46;7.80;;;3.58;;
23449;SDS011;11897;45.438;12.128;2023-07-20T00:35:13;6.00;;;3.67;;
23449;SDS011;11897;45.438;12.128;2023-07-20T00:37:42;3.67;;;3.20;;
23449;SDS011;11897;45.438;12.128;2023-07-20T00:40:09;9.98;;;3.25;;
23449;SDS011;11897;45.438;12.128;2023-07-20T00:42:35;10.65;;;3.95;;
23449;SDS011;11897;45.438;12.128;2023-07-20T00:45:03;6.88;;;3.60;;
23449;SDS011;11897;45.438;12.128;2023-07-20T00:47:29;8.55;;;3.53;;
23449;SDS011;11897;45.438;12.128;2023-07-20T00:49:58;6.88;;;3.70;;
23449;SDS011;11897;45.438;12.128;2023-07-20T00:52:24;8.75;;;3.92;;
23449;SDS011;11897;45.438;12.128;2023-07-20T00:54:53;6.10;;;4.00;;
23449;SDS011;11897;45.438;12.128;2023-07-20T00:57:23;5.35;;;3.63;;
23449;SDS011;11897;45.438;12.128;2023-07-20T00:59:50;5.30;;;3.47;;
23449;SDS011;11897;45.438;12.128;2023-07-20T01:02:17;5.22;;;4.00;;
23449;SDS011;11897;45.438;12.128;2023-07-20T01:04:43;4.90;;;3.20;;
23449;SDS011;11897;45.438;12.128;2023-07-20T01:07:11;4.75;;;3.50;;
23449;SDS011;11897;45.438;12.128;2023-07-20T01:09:39;6.00;;;3.95;;
23449;SDS011;11897;45.438;12.128;2023-07-20T01:12:10;5.82;;;3.83;;
23449;SDS011;11897;45.438;12.128;2023-07-20T01:14:39;6.63;;;3.55;;
23449;SDS011;11897;45.438;12.128;2023-07-20T01:17:06;9.65;;;4.40;;
23449;SDS011;11897;45.438;12.128;2023-07-20T01:19:33;5.50;;;3.47;;
23449;SDS011;11897;45.438;12.128;2023-07-20T01:22:01;5.22;;;4.05;;
23449;SDS011;11897;45.438;12.128;2023-07-20T01:24:39;6.68;;;4.40;;
23449;SDS011;11897;45.438;12.128;2023-07-20T01:27:17;8.13;;;3.45;;
23449;SDS011;11897;45.438;12.128;2023-07-20T01:30:01;6.93;;;3.72;;
23449;SDS011;11897;45.438;12.128;2023-07-20T01:32:31;5.28;;;3.70;;
23449;SDS011;11897;45.438;12.128;2023-07-20T01:34:59;11.23;;;3.40;;
23449;SDS011;11897;45.438;12.128;2023-07-20T01:37:26;5.35;;;3.22;;
23449;SDS011;11897;45.438;12.128;2023-07-20T01:39:55;8.35;;;4.38;;
23449;SDS011;11897;45.438;12.128;2023-07-20T01:42:23;7.05;;;3.50;;
23449;SDS011;11897;45.438;12.128;2023-07-20T01:44:50;8.45;;;3.53;;
23449;SDS011;11897;45.438;12.128;2023-07-20T01:47:17;10.20;;;4.60;;
23449;SDS011;11897;45.438;12.128;2023-07-20T01:49:46;6.70;;;3.60;;
23449;SDS011;11897;45.438;12.128;2023-07-20T01:52:12;7.18;;;4.10;;
23449;SDS011;11897;45.438;12.128;2023-07-20T01:54:39;6.55;;;3.53;;
23449;SDS011;11897;45.438;12.128;2023-07-20T01:57:06;4.43;;;3.58;;
23449;SDS011;11897;45.438;12.128;2023-07-20T01:59:32;6.88;;;4.18;;
23449;SDS011;11897;45.438;12.128;2023-07-20T02:01:59;5.32;;;3.60;;
23449;SDS011;11897;45.438;12.128;2023-07-20T02:04:26;9.10;;;4.35;;
23449;SDS011;11897;45.438;12.128;2023-07-20T02:06:54;4.35;;;3.08;;
23449;SDS011;11897;45.438;12.128;2023-07-20T02:09:22;7.55;;;3.80;;
23449;SDS011;11897;45.438;12.128;2023-07-20T02:11:52;8.80;;;4.13;;
23449;SDS011;11897;45.438;12.128;2023-07-20T02:14:20;7.80;;;4.07;;
23449;SDS011;11897;45.438;12.128;2023-07-20T02:16:48;8.07;;;4.28;;
23449;SDS011;11897;45.438;12.128;2023-07-20T02:19:19;5.78;;;3.88;;
23449;SDS011;11897;45.438;12.128;2023-07-20T02:21:46;3.92;;;3.50;;
23449;SDS011;11897;45.438;12.128;2023-07-20T02:24:17;7.32;;;4.53;;
23449;SDS011;11897;45.438;12.128;2023-07-20T02:26:46;11.45;;;4.88;;
23449;SDS011;11897;45.438;12.128;2023-07-20T02:29:13;7.68;;;4.25;;
23449;SDS011;11897;45.438;12.128;2023-07-20T02:31:40;6.53;;;3.58;;
23449;SDS011;11897;45.438;12.128;2023-07-20T02:34:08;5.90;;;3.92;;
23449;SDS011;11897;45.438;12.128;2023-07-20T02:36:35;8.50;;;4.15;;
23449;SDS011;11897;45.438;12.128;2023-07-20T02:39:01;8.15;;;4.35;;
23449;SDS011;11897;45.438;12.128;2023-07-20T02:41:30;8.18;;;4.15;;
23449;SDS011;11897;45.438;12.128;2023-07-20T02:43:57;8.38;;;4.40;;
23449;SDS011;11897;45.438;12.128;2023-07-20T02:46:24;9.90;;;4.35;;
23449;SDS011;11897;45.438;12.128;2023-07-20T02:48:51;10.55;;;5.70;;
23449;SDS011;11897;45.438;12.128;2023-07-20T02:51:17;10.77;;;5.03;;
23449;SDS011;11897;45.438;12.128;2023-07-20T02:53:44;8.32;;;5.85;;
23449;SDS011;11897;45.438;12.128;2023-07-20T02:56:13;10.27;;;5.28;;
23449;SDS011;11897;45.438;12.128;2023-07-20T02:58:42;7.43;;;4.95;;
23449;SDS011;11897;45.438;12.128;2023-07-20T03:01:11;9.02;;;5.70;;
23449;SDS011;11897;45.438;12.128;2023-07-20T03:03:39;10.23;;;5.70;;
23449;SDS011;11897;45.438;12.128;2023-07-20T03:06:06;11.35;;;5.75;;
23449;SDS011;11897;45.438;12.128;2023-07-20T03:08:34;13.60;;;5.85;;
23449;SDS011;11897;45.438;12.128;2023-07-20T03:11:01;8.10;;;5.15;;
23449;SDS011;11897;45.438;12.128;2023-07-20T03:13:28;10.25;;;5.43;;
23449;SDS011;11897;45.438;12.128;2023-07-20T03:15:59;6.53;;;4.70;;
23449;SDS011;11897;45.438;12.128;2023-07-20T03:18:27;6.43;;;4.80;;
23449;SDS011;11897;45.438;12.128;2023-07-20T03:20:54;8.70;;;4.85;;
23449;SDS011;11897;45.438;12.128;2023-07-20T03:23:21;10.05;;;5.15;;
23449;SDS011;11897;45.438;12.128;2023-07-20T03:25:48;7.75;;;4.97;;
23449;SDS011;11897;45.438;12.128;2023-07-20T03:28:15;12.02;;;5.35;;
23449;SDS011;11897;45.438;12.128;2023-07-20T03:30:42;9.15;;;4.97;;
23449;SDS011;11897;45.438;12.128;2023-07-20T03:33:10;13.00;;;5.70;;
23449;SDS011;11897;45.438;12.128;2023-07-20T03:35:37;8.80;;;5.78;;
23449;SDS011;11897;45.438;12.128;2023-07-20T03:38:04;9.05;;;6.20;;
23449;SDS011;11897;45.438;12.128;2023-07-20T03:40:31;9.82;;;6.22;;
23449;SDS011;11897;45.438;12.128;2023-07-20T03:42:58;9.57;;;6.88;;
23449;SDS011;11897;45.438;12.128;2023-07-20T03:45:26;9.50;;;6.13;;
23449;SDS011;11897;45.438;12.128;2023-07-20T03:47:53;13.65;;;5.85;;
23449;SDS011;11897;45.438;12.128;2023-07-20T03:50:24;8.43;;;5.63;;
23449;SDS011;11897;45.438;12.128;2023-07-20T03:52:51;9.43;;;5.68;;
23449;SDS011;11897;45.438;12.128;2023-07-20T03:55:17;8.68;;;5.03;;
23449;SDS011;11897;45.438;12.128;2023-07-20T03:57:44;11.52;;;5.75;;
23449;SDS011;11897;45.438;12.128;2023-07-20T04:00:11;8.18;;;5.38;;
23449;SDS011;11897;45.438;12.128;2023-07-20T04:02:39;11.43;;;6.05;;
23449;SDS011;11897;45.438;12.128;2023-07-20T04:05:07;8.85;;;5.30;;
23449;SDS011;11897;45.438;12.128;2023-07-20T04:07:35;15.60;;;5.80;;
23449;SDS011;11897;45.438;12.128;2023-07-20T04:10:02;9.30;;;5.50;;
23449;SDS011;11897;45.438;12.128;2023-07-20T04:12:29;9.40;;;5.35;;
23449;SDS011;11897;45.438;12.128;2023-07-20T04:14:56;7.45;;;5.07;;
23449;SDS011;11897;45.438;12.128;2023-07-20T04:17:23;9.95;;;5.88;;
23449;SDS011;11897;45.438;12.128;2023-07-20T04:19:49;9.07;;;5.55;;
23449;SDS011;11897;45.438;12.128;2023-07-20T04:22:16;9.75;;;6.20;;
23449;SDS011;11897;45.438;12.128;2023-07-20T04:24:46;8.70;;;5.68;;
23449;SDS011;11897;45.438;12.128;2023-07-20T04:27:13;8.27;;;5.75;;
23449;SDS011;11897;45.438;12.128;2023-07-20T04:29:40;11.20;;;6.50;;
23449;SDS011;11897;45.438;12.128;2023-07-20T04:32:08;10.95;;;6.90;;
23449;SDS011;11897;45.438;12.128;2023-07-20T04:34:36;10.88;;;7.03;;
23449;SDS011;11897;45.438;12.128;2023-07-20T04:37:04;12.02;;;7.25;;
23449;SDS011;11897;45.438;12.128;2023-07-20T04:39:31;11.45;;;6.80;;
23449;SDS011;11897;45.438;12.128;2023-07-20T04:42:06;8.90;;;6.65;;
23449;SDS011;11897;45.438;12.128;2023-07-20T04:44:33;10.40;;;6.05;;
23449;SDS011;11897;45.438;12.128;2023-07-20T04:47:00;8.50;;;5.22;;
23449;SDS011;11897;45.438;12.128;2023-07-20T04:49:30;8.70;;;6.07;;
23449;SDS011;11897;45.438;12.128;2023-07-20T04:51:57;10.35;;;5.93;;
23449;SDS011;11897;45.438;12.128;2023-07-20T04:54:23;9.38;;;5.65;;
23449;SDS011;11897;45.438;12.128;2023-07-20T04:56:53;9.93;;;5.72;;
23449;SDS011;11897;45.438;12.128;2023-07-20T04:59:22;7.05;;;5.45;;
23449;SDS011;11897;45.438;12.128;2023-07-20T05:01:49;10.20;;;6.07;;
23449;SDS011;11897;45.438;12.128;2023-07-20T05:04:16;11.90;;;5.93;;
23449;SDS011;11897;45.438;12.128;2023-07-20T05:06:43;9.05;;;5.95;;
23449;SDS011;11897;45.438;12.128;2023-07-20T05:09:11;8.52;;;6.35;;
23449;SDS011;11897;45.438;12.128;2023-07-20T05:11:37;13.10;;;6.15;;
23449;SDS011;11897;45.438;12.128;2023-07-20T05:14:04;8.52;;;6.03;;
23449;SDS011;11897;45.438;12.128;2023-07-20T05:16:33;11.52;;;6.57;;
23449;SDS011;11897;45.438;12.128;2023-07-20T05:19:03;9.35;;;6.55;;
23449;SDS011;11897;45.438;12.128;2023-07-20T05:21:30;11.88;;;6.25;;
23449;SDS011;11897;45.438;12.128;2023-07-20T05:23:56;11.43;;;7.07;;
23449;SDS011;11897;45.438;12.128;2023-07-20T05:26:23;11.20;;;6.72;;
23449;SDS011;11897;45.438;12.128;2023-07-20T05:28:51;8.90;;;7.03;;
23449;SDS011;11897;45.438;12.128;2023-07-20T05:31:17;13.18;;;7.10;;
23449;SDS011;11897;45.438;12.128;2023-07-20T05:33:47;8.68;;;6.15;;
23449;SDS011;11897;45.438;12.128;2023-07-20T05:36:14;14.48;;;6.18;;
23449;SDS011;11897;45.438;12.128;2023-07-20T05:38:41;6.90;;;5.32;;
23449;SDS011;11897;45.438;12.128;2023-07-20T05:41:08;9.18;;;4.15;;
23449;SDS011;11897;45.438;12.128;2023-07-20T05:43:35;7.85;;;4.63;;
23449;SDS011;11897;45.438;12.128;2023-07-20T05:46:02;7.65;;;4.30;;
23449;SDS011;11897;45.438;12.128;2023-07-20T05:48:30;7.35;;;3.90;;
23449;SDS011;11897;45.438;12.128;2023-07-20T05:50:59;7.07;;;4.72;;
23449;SDS011;11897;45.438;12.128;2023-07-20T05:53:26;7.43;;;4.97;;
23449;SDS011;11897;45.438;12.128;2023-07-20T05:55:53;6.85;;;4.57;;
23449;SDS011;11897;45.438;12.128;2023-07-20T05:58:20;9.25;;;4.43;;
23449;SDS011;11897;45.438;12.128;2023-07-20T06:00:48;10.18;;;5.15;;
23449;SDS011;11897;45.438;12.128;2023-07-20T06:03:16;14.80;;;5.25;;
23449;SDS011;11897;45.438;12.128;2023-07-20T06:05:43;7.78;;;4.50;;
23449;SDS011;11897;45.438;12.128;2023-07-20T06:08:11;6.90;;;4.07;;
23449;SDS011;11897;45.438;12.128;2023-07-20T06:10:39;6.93;;;4.15;;
23449;SDS011;11897;45.438;12.128;2023-07-20T06:13:06;7.40;;;3.92;;
23449;SDS011;11897;45.438;12.128;2023-07-20T06:15:33;6.72;;;4.20;;
23449;SDS011;11897;45.438;12.128;2023-07-20T06:18:03;6.55;;;3.78;;
23449;SDS011;11897;45.438;12.128;2023-07-20T06:20:33;5.13;;;3.40;;
23449;SDS011;11897;45.438;12.128;2023-07-20T06:23:00;6.43;;;3.83;;
23449;SDS011;11897;45.438;12.128;2023-07-20T06:25:29;7.00;;;3.17;;
23449;SDS011;11897;45.438;12.128;2023-07-20T06:27:56;6.38;;;3.70;;
23449;SDS011;11897;45.438;12.128;2023-07-20T06:30:23;4.68;;;3.67;;
23449;SDS011;11897;45.438;12.128;2023-07-20T06:32:51;5.20;;;3.80;;
23449;SDS011;11897;45.438;12.128;2023-07-20T06:35:17;6.20;;;3.78;;
23449;SDS011;11897;45.438;12.128;2023-07-20T06:37:44;5.10;;;4.03;;
23449;SDS011;11897;45.438;12.128;2023-07-20T06:40:19;6.95;;;3.65;;
23449;SDS011;11897;45.438;12.128;2023-07-20T06:42:47;8.23;;;3.70;;
23449;SDS011;11897;45.438;12.128;2023-07-20T06:45:14;8.00;;;3.55;;
23449;SDS011;11897;45.438;12.128;2023-07-20T06:47:41;6.68;;;4.13;;
23449;SDS011;11897;45.438;12.128;2023-07-20T06:50:09;6.68;;;3.85;;
23449;SDS011;11897;45.438;12.128;2023-07-20T06:52:36;7.95;;;4.53;;
23449;SDS011;11897;45.438;12.128;2023-07-20T06:55:03;7.55;;;4.07;;
23449;SDS011;11897;45.438;12.128;2023-07-20T06:57:30;6.28;;;4.32;;
23449;SDS011;11897;45.438;12.128;2023-07-20T06:59:58;7.57;;;4.20;;
23449;SDS011;11897;45.438;12.128;2023-07-20T07:02:25;5.95;;;4.40;;
23449;SDS011;11897;45.438;12.128;2023-07-20T07:04:51;6.07;;;4.50;;
23449;SDS011;11897;45.438;12.128;2023-07-20T07:07:18;6.53;;;3.72;;
23449;SDS011;11897;45.438;12.128;2023-07-20T07:09:45;6.95;;;4.10;;
23449;SDS011;11897;45.438;12.128;2023-07-20T07:12:12;5.57;;;3.80;;
23449;SDS011;11897;45.438;12.128;2023-07-20T07:14:40;5.88;;;4.15;;
23449;SDS011;11897;45.438;12.128;2023-07-20T07:17:08;6.18;;;3.92;;
23449;SDS011;11897;45.438;12.128;2023-07-20T07:19:34;8.98;;;4.30;;
23449;SDS011;11897;45.438;12.128;2023-07-20T07:22:03;5.47;;;3.05;;
23449;SDS011;11897;45.438;12.128;2023-07-20T07:24:33;4.00;;;3.10;;
23449;SDS011;11897;45.438;12.128;2023-07-20T07:27:00;3.40;;;2.63;;
23449;SDS011;11897;45.438;12.128;2023-07-20T07:29:27;3.35;;;2.72;;
23449;SDS011;11897;45.438;12.128;2023-07-20T07:31:54;5.82;;;2.60;;
23449;SDS011;11897;45.438;12.128;2023-07-20T07:34:24;4.82;;;2.55;;
23449;SDS011;11897;45.438;12.128;2023-07-20T07:36:51;5.55;;;2.58;;
23449;SDS011;11897;45.438;12.128;2023-07-20T07:39:18;2.95;;;2.42;;
23449;SDS011;11897;45.438;12.128;2023-07-20T07:41:45;5.10;;;2.90;;
23449;SDS011;11897;45.438;12.128;2023-07-20T07:44:12;7.07;;;2.60;;
23449;SDS011;11897;45.438;12.128;2023-07-20T07:46:38;3.22;;;2.15;;
23449;SDS011;11897;45.438;12.128;2023-07-20T07:49:07;1.90;;;1.70;;
23449;SDS011;11897;45.438;12.128;2023-07-20T07:51:35;4.05;;;1.98;;
23449;SDS011;11897;45.438;12.128;2023-07-20T07:54:02;3.10;;;1.58;;
23449;SDS011;11897;45.438;12.128;2023-07-20T07:56:29;3.50;;;2.50;;
23449;SDS011;11897;45.438;12.128;2023-07-20T07:58:56;4.63;;;1.83;;
23449;SDS011;11897;45.438;12.128;2023-07-20T08:01:23;5.97;;;2.15;;
23449;SDS011;11897;45.438;12.128;2023-07-20T08:03:50;2.28;;;1.95;;
23449;SDS011;11897;45.438;12.128;2023-07-20T08:06:17;2.97;;;1.85;;
23449;SDS011;11897;45.438;12.128;2023-07-20T08:08:45;3.20;;;2.17;;
23449;SDS011;11897;45.438;12.128;2023-07-20T08:11:12;3.33;;;1.88;;
23449;SDS011;11897;45.438;12.128;2023-07-20T08:13:39;2.97;;;1.70;;
23449;SDS011;11897;45.438;12.128;2023-07-20T08:16:05;2.75;;;1.85;;
23449;SDS011;11897;45.438;12.128;2023-07-20T08:18:32;2.42;;;1.95;;
23449;SDS011;11897;45.438;12.128;2023-07-20T08:21:03;2.65;;;1.88;;
23449;SDS011;11897;45.438;12.128;2023-07-20T08:23:30;2.20;;;1.90;;
23449;SDS011;11897;45.438;12.128;2023-07-20T08:25:58;2.63;;;1.77;;
23449;SDS011;11897;45.438;12.128;2023-07-20T08:28:27;3.38;;;2.13;;
23449;SDS011;11897;45.438;12.128;2023-07-20T08:30:55;4.55;;;2.00;;
23449;SDS011;11897;45.438;12.128;2023-07-20T08:33:21;5.60;;;1.90;;
23449;SDS011;11897;45.438;12.128;2023-07-20T08:35:50;2.88;;;2.03;;
23449;SDS011;11897;45.438;12.128;2023-07-20T08:38:16;4.03;;;2.17;;
23449;SDS011;11897;45.438;12.128;2023-07-20T08:40:51;3.17;;;2.10;;
23449;SDS011;11897;45.438;12.128;2023-07-20T08:43:20;3.35;;;1.90;;
23449;SDS011;11897;45.438;12.128;2023-07-20T08:45:49;4.50;;;1.88;;
23449;SDS011;11897;45.438;12.128;2023-07-20T08:48:16;2.63;;;1.98;;
23449;SDS011;11897;45.438;12.128;2023-07-20T08:50:44;2.85;;;1.80;;
23449;SDS011;11897;45.438;12.128;2023-07-20T08:53:13;2.97;;;1.88;;
23449;SDS011;11897;45.438;12.128;2023-07-20T08:55:40;6.03;;;1.90;;
23449;SDS011;11897;45.438;12.128;2023-07-20T08:58:09;4.43;;;1.60;;
23449;SDS011;11897;45.438;12.128;2023-07-20T09:00:39;4.32;;;1.48;;
23449;SDS011;11897;45.438;12.128;2023-07-20T09:03:07;2.35;;;1.40;;
23449;SDS011;11897;45.438;12.128;2023-07-20T09:05:34;2.92;;;1.25;;
23449;SDS011;11897;45.438;12.128;2023-07-20T09:08:02;2.60;;;1.45;;
23449;SDS011;11897;45.438;12.128;2023-07-20T09:10:30;2.97;;;1.40;;
23449;SDS011;11897;45.438;12.128;2023-07-20T09:12:57;2.95;;;1.45;;
23449;SDS011;11897;45.438;12.128;2023-07-20T09:15:24;9.07;;;1.40;;
23449;SDS011;11897;45.438;12.128;2023-07-20T09:17:58;1.77;;;1.45;;
23449;SDS011;11897;45.438;12.128;2023-07-20T09:20:27;1.48;;;1.30;;
23449;SDS011;11897;45.438;12.128;2023-07-20T09:22:58;1.40;;;1.30;;
23449;SDS011;11897;45.438;12.128;2023-07-20T09:25:25;1.85;;;1.10;;
23449;SDS011;11897;45.438;12.128;2023-07-20T09:27:53;4.18;;;1.58;;
23449;SDS011;11897;45.438;12.128;2023-07-20T09:30:21;2.78;;;1.45;;
23449;SDS011;11897;45.438;12.128;2023-07-20T09:32:51;2.33;;;1.30;;
23449;SDS011;11897;45.438;12.128;2023-07-20T09:35:19;4.47;;;1.35;;
23449;SDS011;11897;45.438;12.128;2023-07-20T09:37:46;2.05;;;1.50;;
23449;SDS011;11897;45.438;12.128;2023-07-20T09:40:14;1.98;;;1.30;;
23449;SDS011;11897;45.438;12.128;2023-07-20T09:42:42;1.83;;;1.52;;
23449;SDS011;11897;45.438;12.128;2023-07-20T09:45:09;2.53;;;1.40;;
23449;SDS011;11897;45.438;12.128;2023-07-20T09:47:37;1.92;;;1.30;;
23449;SDS011;11897;45.438;12.128;2023-07-20T09:50:05;2.28;;;1.13;;
23449;SDS011;11897;45.438;12.128;2023-07-20T09:52:39;2.60;;;1.20;;
23449;SDS011;11897;45.438;12.128;2023-07-20T09:55:07;1.25;;;1.00;;
23449;SDS011;11897;45.438;12.128;2023-07-20T09:57:34;2.63;;;1.40;;
23449;SDS011;11897;45.438;12.128;2023-07-20T10:00:05;1.20;;;1.00;;
23449;SDS011;11897;45.438;12.128;2023-07-20T10:02:41;2.03;;;1.40;;
23449;SDS011;11897;45.438;12.128;2023-07-20T10:05:08;2.70;;;1.30;;
23449;SDS011;11897;45.438;12.128;2023-07-20T10:07:40;1.65;;;1.30;;
23449;SDS011;11897;45.438;12.128;2023-07-20T10:10:08;2.45;;;1.10;;
23449;SDS011;11897;45.438;12.128;2023-07-20T10:12:36;4.30;;;1.27;;
23449;SDS011;11897;45.438;12.128;2023-07-20T10:15:07;1.73;;;1.13;;
23449;SDS011;11897;45.438;12.128;2023-07-20T10:17:36;1.58;;;1.17;;
23449;SDS011;11897;45.438;12.128;2023-07-20T10:20:03;3.13;;;1.10;;
23449;SDS011;11897;45.438;12.128;2023-07-20T10:22:31;2.95;;;1.05;;
23449;SDS011;11897;45.438;12.128;2023-07-20T10:25:03;1.50;;;1.10;;
23449;SDS011;11897;45.438;12.128;2023-07-20T10:27:32;1.88;;;1.20;;
23449;SDS011;11897;45.438;12.128;2023-07-20T10:29:59;3.05;;;1.45;;
23449;SDS011;11897;45.438;12.128;2023-07-20T10:32:27;1.73;;;1.30;;
23449;SDS011;11897;45.438;12.128;2023-07-20T10:34:55;1.23;;;1.13;;
23449;SDS011;11897;45.438;12.128;2023-07-20T10:40:27;4.45;;;1.10;;
23449;SDS011;11897;45.438;12.128;2023-07-20T10:43:02;5.05;;;1.23;;
23449;SDS011;11897;45.438;12.128;2023-07-20T10:45:42;4.72;;;1.30;;
23449;SDS011;11897;45.438;12.128;2023-07-20T10:48:15;3.35;;;1.25;;
23449;SDS011;11897;45.438;12.128;2023-07-20T10:50:45;2.00;;;1.25;;
23449;SDS011;11897;45.438;12.128;2023-07-20T10:53:13;1.83;;;1.20;;
23449;SDS011;11897;45.438;12.128;2023-07-20T10:55:42;2.97;;;1.40;;
23449;SDS011;11897;45.438;12.128;2023-07-20T10:58:11;3.70;;;1.42;;
23449;SDS011;11897;45.438;12.128;2023-07-20T11:03:26;1.38;;;1.25;;
23449;SDS011;11897;45.438;12.128;2023-07-20T11:05:53;2.53;;;1.50;;
23449;SDS011;11897;45.438;12.128;2023-07-20T11:08:37;3.90;;;1.58;;
23449;SDS011;11897;45.438;12.128;2023-07-20T11:13:55;2.28;;;1.67;;
23449;SDS011;11897;45.438;12.128;2023-07-20T11:19:13;3.92;;;1.65;;
23449;SDS011;11897;45.438;12.128;2023-07-20T11:21:42;1.98;;;1.58;;
23449;SDS011;11897;45.438;12.128;2023-07-20T11:24:09;2.65;;;1.48;;
23449;SDS011;11897;45.438;12.128;2023-07-20T11:26:45;2.10;;;1.60;;
23449;SDS011;11897;45.438;12.128;2023-07-20T11:29:15;1.63;;;1.25;;
23449;SDS011;11897;45.438;12.128;2023-07-20T11:31:42;2.15;;;1.55;;
23449;SDS011;11897;45.438;12.128;2023-07-20T11:34:10;2.42;;;1.50;;
23449;SDS011;11897;45.438;12.128;2023-07-20T11:36:38;3.38;;;1.50;;
23449;SDS011;11897;45.438;12.128;2023-07-20T11:39:07;4.32;;;1.55;;
23449;SDS011;11897;45.438;12.128;2023-07-20T11:41:34;4.07;;;1.63;;
23449;SDS011;11897;45.438;12.128;2023-07-20T11:44:01;3.60;;;1.58;;
23449;SDS011;11897;45.438;12.128;2023-07-20T11:46:29;3.55;;;1.58;;
23449;SDS011;11897;45.438;12.128;2023-07-20T11:48:57;3.08;;;1.50;;
23449;SDS011;11897;45.438;12.128;2023-07-20T11:51:28;2.35;;;1.50;;
23449;SDS011;11897;45.438;12.128;2023-07-20T11:53:56;2.55;;;1.35;;
23449;SDS011;11897;45.438;12.128;2023-07-20T11:56:24;1.65;;;1.20;;
23449;SDS011;11897;45.438;12.128;2023-07-20T11:58:54;1.58;;;1.20;;
23449;SDS011;11897;45.438;12.128;2023-07-20T12:01:21;2.33;;;1.70;;
23449;SDS011;11897;45.438;12.128;2023-07-20T12:03:49;2.40;;;1.45;;
23449;SDS011;11897;45.438;12.128;2023-07-20T12:06:17;3.50;;;1.60;;
23449;SDS011;11897;45.438;12.128;2023-07-20T12:08:44;2.25;;;1.60;;
23449;SDS011;11897;45.438;12.128;2023-07-20T12:11:29;2.25;;;1.42;;
23449;SDS011;11897;45.438;12.128;2023-07-20T12:13:57;3.95;;;1.67;;
23449;SDS011;11897;45.438;12.128;2023-07-20T12:16:26;1.95;;;1.33;;
23449;SDS011;11897;45.438;12.128;2023-07-20T12:19:00;2.10;;;1.40;;
23449;SDS011;11897;45.438;12.128;2023-07-20T12:21:27;2.67;;;1.17;;
23449;SDS011;11897;45.438;12.128;2023-07-20T12:23:55;4.03;;;1.33;;
23449;SDS011;11897;45.438;12.128;2023-07-20T12:26:26;2.72;;;1.60;;
23449;SDS011;11897;45.438;12.128;2023-07-20T12:28:55;3.08;;;1.10;;
23449;SDS011;11897;45.438;12.128;2023-07-20T12:31:21;1.77;;;1.20;;
23449;SDS011;11897;45.438;12.128;2023-07-20T12:33:49;2.50;;;1.60;;
23449;SDS011;11897;45.438;12.128;2023-07-20T12:36:19;1.08;;;0.98;;
23449;SDS011;11897;45.438;12.128;2023-07-20T12:38:46;2.35;;;1.20;;
23449;SDS011;11897;45.438;12.128;2023-07-20T12:41:13;3.10;;;1.70;;
23449;SDS011;11897;45.438;12.128;2023-07-20T12:43:40;4.35;;;1.30;;
23449;SDS011;11897;45.438;12.128;2023-07-20T12:46:08;1.85;;;1.50;;
23449;SDS011;11897;45.438;12.128;2023-07-20T12:48:37;2.45;;;1.30;;
23449;SDS011;11897;45.438;12.128;2023-07-20T12:51:05;1.85;;;1.40;;
23449;SDS011;11897;45.438;12.128;2023-07-20T12:53:34;2.10;;;1.63;;
23449;SDS011;11897;45.438;12.128;2023-07-20T12:56:03;5.68;;;1.48;;
23449;SDS011;11897;45.438;12.128;2023-07-20T12:58:30;1.95;;;1.30;;
23449;SDS011;11897;45.438;12.128;2023-07-20T13:00:57;2.30;;;1.70;;
23449;SDS011;11897;45.438;12.128;2023-07-20T13:03:24;3.72;;;1.75;;
23449;SDS011;11897;45.438;12.128;2023-07-20T13:05:51;1.50;;;1.17;;
23449;SDS011;11897;45.438;12.128;2023-07-20T13:08:19;1.67;;;1.40;;
23449;SDS011;11897;45.438;12.128;2023-07-20T13:10:52;6.85;;;1.83;;
23449;SDS011;11897;45.438;12.128;2023-07-20T13:13:18;3.08;;;1.70;;
23449;SDS011;11897;45.438;12.128;2023-07-20T13:15:45;3.03;;;1.23;;
23449;SDS011;11897;45.438;12.128;2023-07-20T13:18:13;5.20;;;1.50;;
23449;SDS011;11897;45.438;12.128;2023-07-20T13:20:40;3.20;;;1.45;;
23449;SDS011;11897;45.438;12.128;2023-07-20T13:23:06;3.63;;;1.50;;
23449;SDS011;11897;45.438;12.128;2023-07-20T13:25:33;1.77;;;1.50;;
23449;SDS011;11897;45.438;12.128;2023-07-20T13:28:02;3.65;;;1.80;;
23449;SDS011;11897;45.438;12.128;2023-07-20T13:30:29;1.75;;;1.20;;
23449;SDS011;11897;45.438;12.128;2023-07-20T13:32:57;1.40;;;1.30;;
23449;SDS011;11897;45.438;12.128;2023-07-20T13:35:24;1.55;;;1.25;;
23449;SDS011;11897;45.438;12.128;2023-07-20T13:37:52;2.08;;;1.35;;
23449;SDS011;11897;45.438;12.128;2023-07-20T13:40:20;1.85;;;1.40;;
23449;SDS011;11897;45.438;12.128;2023-07-20T13:42:49;3.03;;;1.60;;
23449;SDS011;11897;45.438;12.128;2023-07-20T13:45:17;1.45;;;1.35;;
23449;SDS011;11897;45.438;12.128;2023-07-20T13:47:44;2.42;;;1.30;;
23449;SDS011;11897;45.438;12.128;2023-07-20T13:50:11;2.85;;;1.50;;
23449;SDS011;11897;45.438;12.128;2023-07-20T13:52:38;3.85;;;1.70;;
23449;SDS011;11897;45.438;12.128;2023-07-20T13:55:04;3.20;;;1.67;;
23449;SDS011;11897;45.438;12.128;2023-07-20T13:57:33;5.07;;;1.50;;
23449;SDS011;11897;45.438;12.128;2023-07-20T14:00:00;2.65;;;1.55;;
23449;SDS011;11897;45.438;12.128;2023-07-20T14:02:38;1.23;;;1.13;;
23449;SDS011;11897;45.438;12.128;2023-07-20T14:05:05;1.50;;;1.40;;
23449;SDS011;11897;45.438;12.128;2023-07-20T14:07:34;4.30;;;1.20;;
23449;SDS011;11897;45.438;12.128;2023-07-20T14:10:03;2.08;;;1.30;;
23449;SDS011;11897;45.438;12.128;2023-07-20T14:12:30;4.22;;;1.67;;
23449;SDS011;11897;45.438;12.128;2023-07-20T14:14:56;3.92;;;1.52;;
23449;SDS011;11897;45.438;12.128;2023-07-20T14:17:23;1.65;;;1.15;;
23449;SDS011;11897;45.438;12.128;2023-07-20T14:19:52;2.80;;;1.45;;
23449;SDS011;11897;45.438;12.128;2023-07-20T14:22:19;3.60;;;1.70;;
23449;SDS011;11897;45.438;12.128;2023-07-20T14:24:46;4.50;;;1.60;;
23449;SDS011;11897;45.438;12.128;2023-07-20T14:27:13;3.38;;;1.65;;
23449;SDS011;11897;45.438;12.128;2023-07-20T14:29:41;4.50;;;1.58;;
23449;SDS011;11897;45.438;12.128;2023-07-20T14:32:10;2.97;;;1.45;;
23449;SDS011;11897;45.438;12.128;2023-07-20T14:34:36;4.65;;;1.60;;
23449;SDS011;11897;45.438;12.128;2023-07-20T14:37:05;2.20;;;1.52;;
23449;SDS011;11897;45.438;12.128;2023-07-20T14:39:32;6.45;;;1.60;;
23449;SDS011;11897;45.438;12.128;2023-07-20T14:42:03;1.88;;;1.63;;
23449;SDS011;11897;45.438;12.128;2023-07-20T14:44:30;2.95;;;1.70;;
23449;SDS011;11897;45.438;12.128;2023-07-20T14:46:57;2.83;;;1.35;;
23449;SDS011;11897;45.438;12.128;2023-07-20T14:49:25;4.40;;;1.95;;